sensor_id;sensor_type;location;lat;lon;timestamp;P1;durP1;ratioP1;P2;durP2;ratioP2
20090;SDS011;10205;49.678;6.560;2023-12-20T00:02:16;2.00;;;1.73;;
20090;SDS011;10205;49.678;6.560;2023-12-20T00:04:43;1.83;;;1.60;;
20090;SDS011;10205;49.678;6.560;2023-12-20T00:07:10;1.70;;;1.50;;
20090;SDS011;10205;49.678;6.560;2023-12-20T00:09:38;1.63;;;1.40;;
20090;SDS011;10205;49.678;6.560;2023-12-20T00:12:06;1.63;;;1.43;;
20090;SDS011;10205;49.678;6.560;2023-12-20T00:14:34;1.70;;;1.60;;
20090;SDS011;10205;49.678;6.560;2023-12-20T00:17:01;1.40;;;1.30;;
20090;SDS011;10205;49.678;6.560;2023-12-20T00:19:28;1.30;;;1.20;;
20090;SDS011;10205;49.678;6.560;2023-12-20T00:21:55;1.20;;;1.10;;
20090;SDS011;10205;49.678;6.560;2023-12-20T00:24:24;1.47;;;1.37;;
20090;SDS011;10205;49.678;6.560;2023-12-20T00:26:51;1.60;;;1.40;;
20090;SDS011;10205;49.678;6.560;2023-12-20T00:29:20;3.10;;;1.30;;
20090;SDS011;10205;49.678;6.560;2023-12-20T00:31:47;1.60;;;1.50;;
20090;SDS011;10205;49.678;6.560;2023-12-20T00:34:14;1.30;;;1.20;;
20090;SDS011;10205;49.678;6.560;2023-12-20T00:36:41;1.27;;;1.17;;
20090;SDS011;10205;49.678;6.560;2023-12-20T00:39:08;1.40;;;1.20;;
20090;SDS011;10205;49.678;6.560;2023-12-20T00:41:35;1.00;;;1.00;;
20090;SDS011;10205;49.678;6.560;2023-12-20T00:44:03;1.30;;;1.20;;
20090;SDS011;10205;49.678;6.560;2023-12-20T00:46:32;1.10;;;1.00;;
20090;SDS011;10205;49.678;6.560;2023-12-20T00:48:59;1.27;;;1.17;;
20090;SDS011;10205;49.678;6.560;2023-12-20T00:51:26;1.20;;;1.10;;
20090;SDS011;10205;49.678;6.560;2023-12-20T00:53:53;1.10;;;1.07;;
20090;SDS011;10205;49.678;6.560;2023-12-20T00:56:20;1.23;;;1.13;;
20090;SDS011;10205;49.678;6.560;2023-12-20T00:58:47;1.40;;;1.30;;
20090;SDS011;10205;49.678;6.560;2023-12-20T01:01:15;1.47;;;1.37;;
20090;SDS011;10205;49.678;6.560;2023-12-20T01:03:43;1.13;;;1.03;;
20090;SDS011;10205;49.678;6.560;2023-12-20T01:06:11;1.30;;;1.10;;
20090;SDS011;10205;49.678;6.560;2023-12-20T01:08:38;1.03;;;1.03;;
20090;SDS011;10205;49.678;6.560;2023-12-20T01:11:05;1.10;;;1.10;;
20090;SDS011;10205;49.678;6.560;2023-12-20T01:13:32;1.03;;;1.03;;
20090;SDS011;10205;49.678;6.560;2023-12-20T01:15:58;1.60;;;1.20;;
20090;SDS011;10205;49.678;6.560;2023-12-20T01:18:25;1.10;;;1.00;;
20090;SDS011;10205;49.678;6.560;2023-12-20T01:20:54;1.30;;;1.20;;
20090;SDS011;10205;49.678;6.560;2023-12-20T01:23:21;2.30;;;1.30;;
20090;SDS011;10205;49.678;6.560;2023-12-20T01:25:48;1.53;;;1.43;;
20090;SDS011;10205;49.678;6.560;2023-12-20T01:28:15;1.10;;;1.10;;
20090;SDS011;10205;49.678;6.560;2023-12-20T01:30:42;1.13;;;1.10;;
20090;SDS011;10205;49.678;6.560;2023-12-20T01:33:09;1.30;;;1.20;;
20090;SDS011;10205;49.678;6.560;2023-12-20T01:35:37;1.33;;;1.23;;
20090;SDS011;10205;49.678;6.560;2023-12-20T01:38:05;1.30;;;1.20;;
20090;SDS011;10205;49.678;6.560;2023-12-20T01:40:32;1.43;;;1.20;;
20090;SDS011;10205;49.678;6.560;2023-12-20T01:42:59;1.57;;;1.33;;
20090;SDS011;10205;49.678;6.560;2023-12-20T01:45:27;1.30;;;1.07;;
20090;SDS011;10205;49.678;6.560;2023-12-20T01:47:54;1.30;;;1.20;;
20090;SDS011;10205;49.678;6.560;2023-12-20T01:50:23;1.20;;;1.10;;
20090;SDS011;10205;49.678;6.560;2023-12-20T01:52:51;1.20;;;1.10;;
20090;SDS011;10205;49.678;6.560;2023-12-20T01:55:24;1.27;;;1.00;;
20090;SDS011;10205;49.678;6.560;2023-12-20T01:57:53;1.20;;;1.10;;
20090;SDS011;10205;49.678;6.560;2023-12-20T02:00:21;1.33;;;1.23;;
20090;SDS011;10205;49.678;6.560;2023-12-20T02:02:51;1.00;;;1.00;;
20090;SDS011;10205;49.678;6.560;2023-12-20T02:05:20;1.73;;;1.20;;
20090;SDS011;10205;49.678;6.560;2023-12-20T02:07:48;1.03;;;1.03;;
20090;SDS011;10205;49.678;6.560;2023-12-20T02:10:15;1.10;;;1.10;;
20090;SDS011;10205;49.678;6.560;2023-12-20T02:12:44;1.37;;;1.20;;
20090;SDS011;10205;49.678;6.560;2023-12-20T02:15:11;1.30;;;1.20;;
20090;SDS011;10205;49.678;6.560;2023-12-20T02:17:38;1.80;;;1.10;;
20090;SDS011;10205;49.678;6.560;2023-12-20T02:20:06;1.10;;;1.10;;
20090;SDS011;10205;49.678;6.560;2023-12-20T02:22:35;1.20;;;1.10;;
20090;SDS011;10205;49.678;6.560;2023-12-20T02:25:03;1.63;;;1.20;;
20090;SDS011;10205;49.678;6.560;2023-12-20T02:27:30;1.20;;;1.10;;
20090;SDS011;10205;49.678;6.560;2023-12-20T02:29:57;1.20;;;1.10;;
20090;SDS011;10205;49.678;6.560;2023-12-20T02:32:25;1.63;;;1.53;;
20090;SDS011;10205;49.678;6.560;2023-12-20T02:34:52;1.43;;;1.10;;
20090;SDS011;10205;49.678;6.560;2023-12-20T02:37:19;1.60;;;1.40;;
20090;SDS011;10205;49.678;6.560;2023-12-20T02:39:48;1.40;;;1.30;;
20090;SDS011;10205;49.678;6.560;2023-12-20T02:42:15;1.20;;;1.10;;
20090;SDS011;10205;49.678;6.560;2023-12-20T02:44:42;1.80;;;1.30;;
20090;SDS011;10205;49.678;6.560;2023-12-20T02:47:09;1.10;;;1.10;;
20090;SDS011;10205;49.678;6.560;2023-12-20T02:49:36;1.07;;;1.00;;
20090;SDS011;10205;49.678;6.560;2023-12-20T02:52:04;1.30;;;1.20;;
20090;SDS011;10205;49.678;6.560;2023-12-20T02:54:31;1.23;;;1.20;;
20090;SDS011;10205;49.678;6.560;2023-12-20T02:56:59;1.40;;;1.30;;
20090;SDS011;10205;49.678;6.560;2023-12-20T02:59:26;1.90;;;1.10;;
20090;SDS011;10205;49.678;6.560;2023-12-20T03:01:53;1.27;;;1.17;;
20090;SDS011;10205;49.678;6.560;2023-12-20T03:04:20;1.23;;;1.13;;
20090;SDS011;10205;49.678;6.560;2023-12-20T03:06:47;1.33;;;1.23;;
20090;SDS011;10205;49.678;6.560;2023-12-20T03:09:15;1.00;;;1.00;;
20090;SDS011;10205;49.678;6.560;2023-12-20T03:11:42;1.27;;;1.20;;
20090;SDS011;10205;49.678;6.560;2023-12-20T03:14:10;1.27;;;1.17;;
20090;SDS011;10205;49.678;6.560;2023-12-20T03:16:37;1.33;;;1.20;;
20090;SDS011;10205;49.678;6.560;2023-12-20T03:19:04;1.47;;;1.17;;
20090;SDS011;10205;49.678;6.560;2023-12-20T03:21:31;1.20;;;1.13;;
20090;SDS011;10205;49.678;6.560;2023-12-20T03:23:59;1.50;;;1.40;;
20090;SDS011;10205;49.678;6.560;2023-12-20T03:26:26;1.50;;;1.40;;
20090;SDS011;10205;49.678;6.560;2023-12-20T03:28:53;1.53;;;1.43;;
20090;SDS011;10205;49.678;6.560;2023-12-20T03:31:22;1.47;;;1.37;;
20090;SDS011;10205;49.678;6.560;2023-12-20T03:33:49;1.50;;;1.40;;
20090;SDS011;10205;49.678;6.560;2023-12-20T03:36:18;1.30;;;1.27;;
20090;SDS011;10205;49.678;6.560;2023-12-20T03:38:46;1.43;;;1.33;;
20090;SDS011;10205;49.678;6.560;2023-12-20T03:41:13;1.30;;;1.20;;
20090;SDS011;10205;49.678;6.560;2023-12-20T03:43:40;1.87;;;1.57;;
20090;SDS011;10205;49.678;6.560;2023-12-20T03:46:08;3.07;;;1.30;;
20090;SDS011;10205;49.678;6.560;2023-12-20T03:48:37;2.03;;;1.50;;
20090;SDS011;10205;49.678;6.560;2023-12-20T03:51:04;5.27;;;1.70;;
20090;SDS011;10205;49.678;6.560;2023-12-20T03:53:31;1.87;;;1.40;;
20090;SDS011;10205;49.678;6.560;2023-12-20T03:55:58;1.50;;;1.40;;
20090;SDS011;10205;49.678;6.560;2023-12-20T03:58:24;4.50;;;1.53;;
20090;SDS011;10205;49.678;6.560;2023-12-20T04:00:51;1.63;;;1.47;;
20090;SDS011;10205;49.678;6.560;2023-12-20T04:03:19;1.47;;;1.37;;
20090;SDS011;10205;49.678;6.560;2023-12-20T04:05:47;1.90;;;1.50;;
20090;SDS011;10205;49.678;6.560;2023-12-20T04:08:14;1.40;;;1.30;;
20090;SDS011;10205;49.678;6.560;2023-12-20T04:10:41;1.97;;;1.57;;
20090;SDS011;10205;49.678;6.560;2023-12-20T04:13:08;1.77;;;1.20;;
20090;SDS011;10205;49.678;6.560;2023-12-20T04:15:35;1.63;;;1.50;;
20090;SDS011;10205;49.678;6.560;2023-12-20T04:18:03;2.57;;;1.30;;
20090;SDS011;10205;49.678;6.560;2023-12-20T04:20:31;2.40;;;1.50;;
20090;SDS011;10205;49.678;6.560;2023-12-20T04:22:59;2.50;;;1.50;;
20090;SDS011;10205;49.678;6.560;2023-12-20T04:25:26;1.40;;;1.30;;
20090;SDS011;10205;49.678;6.560;2023-12-20T04:27:54;1.60;;;1.50;;
20090;SDS011;10205;49.678;6.560;2023-12-20T04:30:21;1.60;;;1.50;;
20090;SDS011;10205;49.678;6.560;2023-12-20T04:32:48;1.63;;;1.50;;
20090;SDS011;10205;49.678;6.560;2023-12-20T04:35:16;1.50;;;1.40;;
20090;SDS011;10205;49.678;6.560;2023-12-20T04:37:43;2.93;;;1.60;;
20090;SDS011;10205;49.678;6.560;2023-12-20T04:40:12;1.70;;;1.40;;
20090;SDS011;10205;49.678;6.560;2023-12-20T04:42:39;1.93;;;1.63;;
20090;SDS011;10205;49.678;6.560;2023-12-20T04:45:06;1.30;;;1.20;;
20090;SDS011;10205;49.678;6.560;2023-12-20T04:47:34;2.03;;;1.70;;
20090;SDS011;10205;49.678;6.560;2023-12-20T04:50:02;1.40;;;1.30;;
20090;SDS011;10205;49.678;6.560;2023-12-20T04:52:30;1.30;;;1.20;;
20090;SDS011;10205;49.678;6.560;2023-12-20T04:54:57;1.50;;;1.40;;
20090;SDS011;10205;49.678;6.560;2023-12-20T04:57:26;1.80;;;1.67;;
20090;SDS011;10205;49.678;6.560;2023-12-20T04:59:53;1.67;;;1.40;;
20090;SDS011;10205;49.678;6.560;2023-12-20T05:02:22;1.50;;;1.40;;
20090;SDS011;10205;49.678;6.560;2023-12-20T05:04:49;3.13;;;1.40;;
20090;SDS011;10205;49.678;6.560;2023-12-20T05:07:18;1.27;;;1.17;;
20090;SDS011;10205;49.678;6.560;2023-12-20T05:09:45;1.57;;;1.30;;
20090;SDS011;10205;49.678;6.560;2023-12-20T05:12:13;1.63;;;1.30;;
20090;SDS011;10205;49.678;6.560;2023-12-20T05:14:42;3.23;;;1.43;;
20090;SDS011;10205;49.678;6.560;2023-12-20T05:17:09;2.63;;;1.50;;
20090;SDS011;10205;49.678;6.560;2023-12-20T05:19:36;3.43;;;1.23;;
20090;SDS011;10205;49.678;6.560;2023-12-20T05:22:03;2.00;;;1.30;;
20090;SDS011;10205;49.678;6.560;2023-12-20T05:24:31;2.27;;;1.47;;
20090;SDS011;10205;49.678;6.560;2023-12-20T05:26:58;2.87;;;1.20;;
20090;SDS011;10205;49.678;6.560;2023-12-20T05:29:25;2.53;;;1.30;;
20090;SDS011;10205;49.678;6.560;2023-12-20T05:31:55;2.77;;;1.40;;
20090;SDS011;10205;49.678;6.560;2023-12-20T05:34:25;2.53;;;1.50;;
20090;SDS011;10205;49.678;6.560;2023-12-20T05:36:57;2.50;;;1.77;;
20090;SDS011;10205;49.678;6.560;2023-12-20T05:39:24;2.10;;;1.30;;
20090;SDS011;10205;49.678;6.560;2023-12-20T05:41:52;2.37;;;1.30;;
20090;SDS011;10205;49.678;6.560;2023-12-20T05:44:22;1.57;;;1.30;;
20090;SDS011;10205;49.678;6.560;2023-12-20T05:46:49;2.40;;;1.60;;
20090;SDS011;10205;49.678;6.560;2023-12-20T05:49:17;1.50;;;1.40;;
20090;SDS011;10205;49.678;6.560;2023-12-20T05:51:45;1.33;;;1.20;;
20090;SDS011;10205;49.678;6.560;2023-12-20T05:54:12;1.67;;;1.37;;
20090;SDS011;10205;49.678;6.560;2023-12-20T05:56:39;1.47;;;1.27;;
20090;SDS011;10205;49.678;6.560;2023-12-20T05:59:06;2.00;;;1.50;;
20090;SDS011;10205;49.678;6.560;2023-12-20T06:01:34;2.90;;;1.40;;
20090;SDS011;10205;49.678;6.560;2023-12-20T06:04:01;3.50;;;1.37;;
20090;SDS011;10205;49.678;6.560;2023-12-20T06:06:31;2.70;;;1.30;;
20090;SDS011;10205;49.678;6.560;2023-12-20T06:08:58;2.33;;;1.30;;
20090;SDS011;10205;49.678;6.560;2023-12-20T06:11:25;1.93;;;1.40;;
20090;SDS011;10205;49.678;6.560;2023-12-20T06:13:52;1.53;;;1.30;;
20090;SDS011;10205;49.678;6.560;2023-12-20T06:16:19;1.73;;;1.23;;
20090;SDS011;10205;49.678;6.560;2023-12-20T06:18:46;2.37;;;1.50;;
20090;SDS011;10205;49.678;6.560;2023-12-20T06:21:13;1.90;;;1.50;;
20090;SDS011;10205;49.678;6.560;2023-12-20T06:23:43;5.47;;;1.60;;
20090;SDS011;10205;49.678;6.560;2023-12-20T06:26:10;2.70;;;1.50;;
20090;SDS011;10205;49.678;6.560;2023-12-20T06:28:37;1.87;;;1.40;;
20090;SDS011;10205;49.678;6.560;2023-12-20T06:31:04;4.33;;;1.63;;
20090;SDS011;10205;49.678;6.560;2023-12-20T06:33:32;3.00;;;1.50;;
20090;SDS011;10205;49.678;6.560;2023-12-20T06:35:59;3.23;;;1.63;;
20090;SDS011;10205;49.678;6.560;2023-12-20T06:38:27;2.13;;;1.60;;
20090;SDS011;10205;49.678;6.560;2023-12-20T06:40:57;2.77;;;1.50;;
20090;SDS011;10205;49.678;6.560;2023-12-20T06:43:24;2.30;;;1.47;;
20090;SDS011;10205;49.678;6.560;2023-12-20T06:45:51;2.93;;;1.30;;
20090;SDS011;10205;49.678;6.560;2023-12-20T06:48:18;4.73;;;1.77;;
20090;SDS011;10205;49.678;6.560;2023-12-20T06:50:46;2.23;;;1.50;;
20090;SDS011;10205;49.678;6.560;2023-12-20T06:53:13;3.70;;;1.57;;
20090;SDS011;10205;49.678;6.560;2023-12-20T06:55:40;2.07;;;1.40;;
20090;SDS011;10205;49.678;6.560;2023-12-20T06:58:09;5.07;;;1.80;;
20090;SDS011;10205;49.678;6.560;2023-12-20T07:00:36;3.63;;;1.50;;
20090;SDS011;10205;49.678;6.560;2023-12-20T07:03:03;3.43;;;1.70;;
20090;SDS011;10205;49.678;6.560;2023-12-20T07:05:31;2.53;;;1.87;;
20090;SDS011;10205;49.678;6.560;2023-12-20T07:07:58;7.20;;;2.00;;
20090;SDS011;10205;49.678;6.560;2023-12-20T07:10:25;6.07;;;2.03;;
20090;SDS011;10205;49.678;6.560;2023-12-20T07:12:53;5.07;;;1.93;;
20090;SDS011;10205;49.678;6.560;2023-12-20T07:15:22;4.80;;;1.77;;
20090;SDS011;10205;49.678;6.560;2023-12-20T07:17:50;4.43;;;1.90;;
20090;SDS011;10205;49.678;6.560;2023-12-20T07:20:17;3.03;;;1.73;;
20090;SDS011;10205;49.678;6.560;2023-12-20T07:22:44;9.40;;;1.97;;
20090;SDS011;10205;49.678;6.560;2023-12-20T07:25:11;2.30;;;1.90;;
20090;SDS011;10205;49.678;6.560;2023-12-20T07:27:38;5.43;;;1.90;;
20090;SDS011;10205;49.678;6.560;2023-12-20T07:30:06;5.20;;;2.20;;
20090;SDS011;10205;49.678;6.560;2023-12-20T07:32:36;3.30;;;1.80;;
20090;SDS011;10205;49.678;6.560;2023-12-20T07:35:03;6.87;;;2.20;;
20090;SDS011;10205;49.678;6.560;2023-12-20T07:37:31;4.67;;;1.87;;
20090;SDS011;10205;49.678;6.560;2023-12-20T07:39:58;4.27;;;2.23;;
20090;SDS011;10205;49.678;6.560;2023-12-20T07:42:25;5.57;;;2.37;;
20090;SDS011;10205;49.678;6.560;2023-12-20T07:44:52;3.20;;;2.07;;
20090;SDS011;10205;49.678;6.560;2023-12-20T07:47:20;4.10;;;2.00;;
20090;SDS011;10205;49.678;6.560;2023-12-20T07:49:52;3.50;;;1.97;;
20090;SDS011;10205;49.678;6.560;2023-12-20T07:52:19;4.40;;;1.93;;
20090;SDS011;10205;49.678;6.560;2023-12-20T07:54:48;3.57;;;2.10;;
20090;SDS011;10205;49.678;6.560;2023-12-20T07:57:15;4.30;;;2.30;;
20090;SDS011;10205;49.678;6.560;2023-12-20T07:59:43;3.00;;;1.87;;
20090;SDS011;10205;49.678;6.560;2023-12-20T08:02:10;3.57;;;2.33;;
20090;SDS011;10205;49.678;6.560;2023-12-20T08:04:37;4.63;;;2.00;;
20090;SDS011;10205;49.678;6.560;2023-12-20T08:07:06;4.23;;;2.37;;
20090;SDS011;10205;49.678;6.560;2023-12-20T08:09:33;4.80;;;1.80;;
20090;SDS011;10205;49.678;6.560;2023-12-20T08:12:01;4.30;;;2.20;;
20090;SDS011;10205;49.678;6.560;2023-12-20T08:14:29;4.20;;;2.40;;
20090;SDS011;10205;49.678;6.560;2023-12-20T08:16:57;5.57;;;2.50;;
20090;SDS011;10205;49.678;6.560;2023-12-20T08:19:25;6.47;;;2.50;;
20090;SDS011;10205;49.678;6.560;2023-12-20T08:21:52;6.07;;;2.33;;
20090;SDS011;10205;49.678;6.560;2023-12-20T08:24:20;7.03;;;2.50;;
20090;SDS011;10205;49.678;6.560;2023-12-20T08:26:47;3.03;;;2.30;;
20090;SDS011;10205;49.678;6.560;2023-12-20T08:29:14;4.20;;;2.27;;
20090;SDS011;10205;49.678;6.560;2023-12-20T08:31:42;4.57;;;2.43;;
20090;SDS011;10205;49.678;6.560;2023-12-20T08:34:09;6.33;;;3.23;;
20090;SDS011;10205;49.678;6.560;2023-12-20T08:36:37;6.43;;;3.00;;
20090;SDS011;10205;49.678;6.560;2023-12-20T08:39:05;3.10;;;2.43;;
20090;SDS011;10205;49.678;6.560;2023-12-20T08:41:34;3.87;;;3.10;;
20090;SDS011;10205;49.678;6.560;2023-12-20T08:44:02;5.43;;;2.70;;
20090;SDS011;10205;49.678;6.560;2023-12-20T08:46:29;6.73;;;2.63;;
20090;SDS011;10205;49.678;6.560;2023-12-20T08:48:56;4.13;;;2.50;;
20090;SDS011;10205;49.678;6.560;2023-12-20T08:51:23;4.07;;;2.87;;
20090;SDS011;10205;49.678;6.560;2023-12-20T08:53:50;6.00;;;3.00;;
20090;SDS011;10205;49.678;6.560;2023-12-20T08:56:18;5.73;;;2.60;;
20090;SDS011;10205;49.678;6.560;2023-12-20T08:58:47;3.43;;;2.63;;
20090;SDS011;10205;49.678;6.560;2023-12-20T09:01:14;8.60;;;3.00;;
20090;SDS011;10205;49.678;6.560;2023-12-20T09:03:41;4.30;;;2.83;;
20090;SDS011;10205;49.678;6.560;2023-12-20T09:06:09;5.07;;;3.13;;
20090;SDS011;10205;49.678;6.560;2023-12-20T09:08:36;5.37;;;2.83;;
20090;SDS011;10205;49.678;6.560;2023-12-20T09:11:04;5.60;;;2.73;;
20090;SDS011;10205;49.678;6.560;2023-12-20T09:13:31;3.27;;;2.53;;
20090;SDS011;10205;49.678;6.560;2023-12-20T09:16:00;4.10;;;2.47;;
20090;SDS011;10205;49.678;6.560;2023-12-20T09:18:27;3.10;;;2.40;;
20090;SDS011;10205;49.678;6.560;2023-12-20T09:20:54;4.07;;;2.80;;
20090;SDS011;10205;49.678;6.560;2023-12-20T09:23:21;4.73;;;2.70;;
20090;SDS011;10205;49.678;6.560;2023-12-20T09:25:48;4.40;;;3.03;;
20090;SDS011;10205;49.678;6.560;2023-12-20T09:28:16;4.67;;;2.70;;
20090;SDS011;10205;49.678;6.560;2023-12-20T09:30:43;8.27;;;3.00;;
20090;SDS011;10205;49.678;6.560;2023-12-20T09:33:12;10.33;;;3.07;;
20090;SDS011;10205;49.678;6.560;2023-12-20T09:35:41;5.80;;;2.90;;
20090;SDS011;10205;49.678;6.560;2023-12-20T09:38:09;9.53;;;3.23;;
20090;SDS011;10205;49.678;6.560;2023-12-20T09:40:37;3.73;;;2.87;;
20090;SDS011;10205;49.678;6.560;2023-12-20T09:43:08;7.70;;;3.33;;
20090;SDS011;10205;49.678;6.560;2023-12-20T09:45:40;5.47;;;3.10;;
20090;SDS011;10205;49.678;6.560;2023-12-20T09:48:08;2.50;;;2.30;;
20090;SDS011;10205;49.678;6.560;2023-12-20T09:50:39;5.80;;;3.23;;
20090;SDS011;10205;49.678;6.560;2023-12-20T09:53:07;4.47;;;2.80;;
20090;SDS011;10205;49.678;6.560;2023-12-20T09:55:38;8.77;;;3.00;;
20090;SDS011;10205;49.678;6.560;2023-12-20T09:58:09;5.53;;;3.20;;
20090;SDS011;10205;49.678;6.560;2023-12-20T10:00:37;3.00;;;2.50;;
20090;SDS011;10205;49.678;6.560;2023-12-20T10:03:04;5.23;;;2.77;;
20090;SDS011;10205;49.678;6.560;2023-12-20T10:05:34;7.87;;;3.20;;
20090;SDS011;10205;49.678;6.560;2023-12-20T10:08:01;4.87;;;2.20;;
20090;SDS011;10205;49.678;6.560;2023-12-20T10:10:30;9.47;;;3.20;;
20090;SDS011;10205;49.678;6.560;2023-12-20T10:13:03;11.53;;;3.20;;
20090;SDS011;10205;49.678;6.560;2023-12-20T10:15:32;4.70;;;2.53;;
20090;SDS011;10205;49.678;6.560;2023-12-20T10:18:00;4.37;;;2.60;;
20090;SDS011;10205;49.678;6.560;2023-12-20T10:20:27;4.63;;;2.83;;
20090;SDS011;10205;49.678;6.560;2023-12-20T10:22:56;13.43;;;2.63;;
20090;SDS011;10205;49.678;6.560;2023-12-20T10:25:26;3.73;;;2.40;;
20090;SDS011;10205;49.678;6.560;2023-12-20T10:28:09;7.17;;;3.00;;
20090;SDS011;10205;49.678;6.560;2023-12-20T10:30:39;3.60;;;1.90;;
20090;SDS011;10205;49.678;6.560;2023-12-20T10:33:07;5.83;;;2.40;;
20090;SDS011;10205;49.678;6.560;2023-12-20T10:35:35;5.47;;;2.97;;
20090;SDS011;10205;49.678;6.560;2023-12-20T10:38:08;6.00;;;2.53;;
20090;SDS011;10205;49.678;6.560;2023-12-20T10:40:39;5.00;;;3.23;;
20090;SDS011;10205;49.678;6.560;2023-12-20T10:43:06;5.67;;;2.50;;
20090;SDS011;10205;49.678;6.560;2023-12-20T10:45:35;3.37;;;2.50;;
20090;SDS011;10205;49.678;6.560;2023-12-20T10:48:02;7.00;;;2.30;;
20090;SDS011;10205;49.678;6.560;2023-12-20T10:50:31;3.37;;;1.90;;
20090;SDS011;10205;49.678;6.560;2023-12-20T10:52:59;4.80;;;2.00;;
20090;SDS011;10205;49.678;6.560;2023-12-20T10:55:27;8.30;;;2.40;;
20090;SDS011;10205;49.678;6.560;2023-12-20T10:57:58;4.83;;;2.20;;
20090;SDS011;10205;49.678;6.560;2023-12-20T11:00:32;4.47;;;2.20;;
20090;SDS011;10205;49.678;6.560;2023-12-20T11:03:05;4.43;;;2.37;;
20090;SDS011;10205;49.678;6.560;2023-12-20T11:05:36;2.97;;;2.17;;
20090;SDS011;10205;49.678;6.560;2023-12-20T11:08:16;6.53;;;2.60;;
20090;SDS011;10205;49.678;6.560;2023-12-20T11:10:55;6.03;;;2.20;;
20090;SDS011;10205;49.678;6.560;2023-12-20T11:13:35;4.73;;;1.90;;
20090;SDS011;10205;49.678;6.560;2023-12-20T11:16:10;6.53;;;1.93;;
20090;SDS011;10205;49.678;6.560;2023-12-20T11:18:37;5.17;;;2.70;;
20090;SDS011;10205;49.678;6.560;2023-12-20T11:21:08;5.23;;;1.87;;
20090;SDS011;10205;49.678;6.560;2023-12-20T11:23:39;4.67;;;2.00;;
20090;SDS011;10205;49.678;6.560;2023-12-20T11:26:10;6.17;;;2.10;;
20090;SDS011;10205;49.678;6.560;2023-12-20T11:28:41;6.63;;;2.10;;
20090;SDS011;10205;49.678;6.560;2023-12-20T11:31:08;5.13;;;1.90;;
20090;SDS011;10205;49.678;6.560;2023-12-20T11:33:42;8.00;;;2.03;;
20090;SDS011;10205;49.678;6.560;2023-12-20T11:36:13;7.50;;;2.57;;
20090;SDS011;10205;49.678;6.560;2023-12-20T11:38:49;3.97;;;2.30;;
20090;SDS011;10205;49.678;6.560;2023-12-20T11:41:23;5.23;;;2.00;;
20090;SDS011;10205;49.678;6.560;2023-12-20T11:43:52;4.50;;;1.80;;
20090;SDS011;10205;49.678;6.560;2023-12-20T11:46:20;4.27;;;2.20;;
20090;SDS011;10205;49.678;6.560;2023-12-20T11:48:47;4.07;;;1.80;;
20090;SDS011;10205;49.678;6.560;2023-12-20T11:51:15;6.63;;;2.03;;
20090;SDS011;10205;49.678;6.560;2023-12-20T11:53:42;5.57;;;2.33;;
20090;SDS011;10205;49.678;6.560;2023-12-20T11:56:09;5.23;;;2.40;;
20090;SDS011;10205;49.678;6.560;2023-12-20T11:58:40;3.23;;;1.73;;
20090;SDS011;10205;49.678;6.560;2023-12-20T12:01:08;6.63;;;2.20;;
20090;SDS011;10205;49.678;6.560;2023-12-20T12:03:35;5.93;;;1.97;;
20090;SDS011;10205;49.678;6.560;2023-12-20T12:06:03;6.37;;;2.30;;
20090;SDS011;10205;49.678;6.560;2023-12-20T12:08:31;4.83;;;1.80;;
20090;SDS011;10205;49.678;6.560;2023-12-20T12:10:58;6.27;;;2.30;;
20090;SDS011;10205;49.678;6.560;2023-12-20T12:13:25;5.27;;;2.20;;
20090;SDS011;10205;49.678;6.560;2023-12-20T12:15:55;5.80;;;2.17;;
20090;SDS011;10205;49.678;6.560;2023-12-20T12:18:22;2.57;;;1.87;;
20090;SDS011;10205;49.678;6.560;2023-12-20T12:20:50;6.60;;;2.20;;
20090;SDS011;10205;49.678;6.560;2023-12-20T12:23:26;4.50;;;2.00;;
20090;SDS011;10205;49.678;6.560;2023-12-20T12:25:53;10.20;;;2.07;;
20090;SDS011;10205;49.678;6.560;2023-12-20T12:28:25;5.47;;;2.27;;
20090;SDS011;10205;49.678;6.560;2023-12-20T12:30:58;3.70;;;2.00;;
20090;SDS011;10205;49.678;6.560;2023-12-20T12:33:25;5.13;;;2.20;;
20090;SDS011;10205;49.678;6.560;2023-12-20T12:35:53;4.50;;;1.93;;
20090;SDS011;10205;49.678;6.560;2023-12-20T12:38:21;3.73;;;1.97;;
20090;SDS011;10205;49.678;6.560;2023-12-20T12:40:48;4.00;;;1.77;;
20090;SDS011;10205;49.678;6.560;2023-12-20T12:43:18;4.07;;;2.00;;
20090;SDS011;10205;49.678;6.560;2023-12-20T12:45:45;6.10;;;2.20;;
20090;SDS011;10205;49.678;6.560;2023-12-20T12:48:14;5.90;;;1.90;;
20090;SDS011;10205;49.678;6.560;2023-12-20T12:50:41;6.53;;;2.47;;
20090;SDS011;10205;49.678;6.560;2023-12-20T12:53:08;4.70;;;2.20;;
20090;SDS011;10205;49.678;6.560;2023-12-20T12:55:35;5.63;;;2.17;;
20090;SDS011;10205;49.678;6.560;2023-12-20T12:58:02;5.13;;;2.00;;
20090;SDS011;10205;49.678;6.560;2023-12-20T13:00:30;3.07;;;1.73;;
20090;SDS011;10205;49.678;6.560;2023-12-20T13:02:58;3.70;;;1.70;;
20090;SDS011;10205;49.678;6.560;2023-12-20T13:05:26;4.47;;;2.07;;
20090;SDS011;10205;49.678;6.560;2023-12-20T13:07:53;6.00;;;2.33;;
20090;SDS011;10205;49.678;6.560;2023-12-20T13:10:21;8.63;;;2.73;;
20090;SDS011;10205;49.678;6.560;2023-12-20T13:12:48;5.10;;;2.33;;
20090;SDS011;10205;49.678;6.560;2023-12-20T13:15:16;3.50;;;1.70;;
20090;SDS011;10205;49.678;6.560;2023-12-20T13:17:44;3.07;;;1.90;;
20090;SDS011;10205;49.678;6.560;2023-12-20T13:20:12;5.60;;;1.90;;
20090;SDS011;10205;49.678;6.560;2023-12-20T13:22:40;6.50;;;2.40;;
20090;SDS011;10205;49.678;6.560;2023-12-20T13:25:08;7.90;;;2.30;;
20090;SDS011;10205;49.678;6.560;2023-12-20T13:27:35;5.17;;;2.10;;
20090;SDS011;10205;49.678;6.560;2023-12-20T13:30:02;4.93;;;2.07;;
20090;SDS011;10205;49.678;6.560;2023-12-20T13:32:31;6.37;;;1.70;;
20090;SDS011;10205;49.678;6.560;2023-12-20T13:34:58;5.37;;;2.43;;
20090;SDS011;10205;49.678;6.560;2023-12-20T13:37:25;6.23;;;2.10;;
20090;SDS011;10205;49.678;6.560;2023-12-20T13:39:53;6.80;;;2.10;;
20090;SDS011;10205;49.678;6.560;2023-12-20T13:42:20;2.60;;;1.90;;
20090;SDS011;10205;49.678;6.560;2023-12-20T13:44:49;3.93;;;1.97;;
20090;SDS011;10205;49.678;6.560;2023-12-20T13:47:16;6.33;;;2.07;;
20090;SDS011;10205;49.678;6.560;2023-12-20T13:49:44;4.30;;;1.83;;
20090;SDS011;10205;49.678;6.560;2023-12-20T13:52:11;3.27;;;1.60;;
20090;SDS011;10205;49.678;6.560;2023-12-20T13:54:40;2.37;;;1.80;;
20090;SDS011;10205;49.678;6.560;2023-12-20T13:57:09;4.50;;;2.03;;
20090;SDS011;10205;49.678;6.560;2023-12-20T13:59:36;4.03;;;1.70;;
20090;SDS011;10205;49.678;6.560;2023-12-20T14:02:03;7.30;;;1.97;;
20090;SDS011;10205;49.678;6.560;2023-12-20T14:04:31;6.93;;;2.20;;
20090;SDS011;10205;49.678;6.560;2023-12-20T14:06:58;4.17;;;1.70;;
20090;SDS011;10205;49.678;6.560;2023-12-20T14:09:25;4.87;;;2.10;;
20090;SDS011;10205;49.678;6.560;2023-12-20T14:11:52;5.40;;;1.80;;
20090;SDS011;10205;49.678;6.560;2023-12-20T14:14:21;4.00;;;1.90;;
20090;SDS011;10205;49.678;6.560;2023-12-20T14:16:48;4.40;;;2.10;;
20090;SDS011;10205;49.678;6.560;2023-12-20T14:19:16;5.00;;;2.10;;
20090;SDS011;10205;49.678;6.560;2023-12-20T14:21:44;6.67;;;2.30;;
20090;SDS011;10205;49.678;6.560;2023-12-20T14:24:12;4.27;;;2.30;;
20090;SDS011;10205;49.678;6.560;2023-12-20T14:26:40;2.90;;;1.90;;
20090;SDS011;10205;49.678;6.560;2023-12-20T14:29:07;3.57;;;1.73;;
20090;SDS011;10205;49.678;6.560;2023-12-20T14:31:37;3.70;;;1.93;;
20090;SDS011;10205;49.678;6.560;2023-12-20T14:34:05;3.70;;;1.67;;
20090;SDS011;10205;49.678;6.560;2023-12-20T14:36:34;2.70;;;1.50;;
20090;SDS011;10205;49.678;6.560;2023-12-20T14:39:01;7.37;;;1.97;;
20090;SDS011;10205;49.678;6.560;2023-12-20T14:41:29;5.80;;;1.90;;
20090;SDS011;10205;49.678;6.560;2023-12-20T14:43:56;4.63;;;2.20;;
20090;SDS011;10205;49.678;6.560;2023-12-20T14:46:25;3.73;;;1.70;;
20090;SDS011;10205;49.678;6.560;2023-12-20T14:48:54;5.73;;;1.90;;
20090;SDS011;10205;49.678;6.560;2023-12-20T14:51:22;4.10;;;1.97;;
20090;SDS011;10205;49.678;6.560;2023-12-20T14:53:49;5.20;;;2.07;;